FIN40T EFHK-ESSA
Flight info
| Callsign | FIN40T |
|---|---|
| Flight time | 0h 44m |
| Altitude | 32000 |
| Route | ADIVO Y365 POGOK DCT RUNGA N872 XILAN |
| Aircraft | A320/M-SDE3FGHIRWY/LB1 |
Departure
| Time | 2026-05-07 19:46 |
|---|---|
| Airport | Helsinki Vantaa Airport (EFHK) |
Arrival
| Time | 2026-05-07 20:30 |
|---|---|
| Airport | Stockholm-Arlanda Airport (ESSA) |
| Time | Latitude | Longitude | Altitude | Speed | Heading |
|---|---|---|---|---|---|
| 2026-05-07 19:17 | 60.32008 | 24.96844 | 164 ft | 0 kts | 193° |
| 2026-05-07 19:37 | 60.32017 | 24.96848 | 163 ft | 4 kts | 199° |
| 2026-05-07 19:38 | 60.32039 | 24.96874 | 163 ft | 4 kts | 232° |
| 2026-05-07 19:38 | 60.32050 | 24.96921 | 163 ft | 4 kts | 269° |
| 2026-05-07 19:38 | 60.32044 | 24.96967 | 163 ft | 3 kts | 326° |
| 2026-05-07 19:38 | 60.32041 | 24.96972 | 163 ft | 0 kts | 333° |
| 2026-05-07 19:40 | 60.32041 | 24.96971 | 163 ft | 1 kts | 333° |
| 2026-05-07 19:40 | 60.32081 | 24.96927 | 163 ft | 11 kts | 330° |
| 2026-05-07 19:41 | 60.32163 | 24.96829 | 164 ft | 14 kts | 330° |
| 2026-05-07 19:41 | 60.32247 | 24.96731 | 166 ft | 14 kts | 330° |
| 2026-05-07 19:41 | 60.32317 | 24.96648 | 168 ft | 8 kts | 329° |
| 2026-05-07 19:41 | 60.32330 | 24.96634 | 169 ft | 0 kts | 329° |
| 2026-05-07 19:42 | 60.32335 | 24.96627 | 170 ft | 6 kts | 330° |
| 2026-05-07 19:42 | 60.32405 | 24.96546 | 175 ft | 15 kts | 329° |
| 2026-05-07 19:42 | 60.32493 | 24.96443 | 175 ft | 17 kts | 330° |
| 2026-05-07 19:42 | 60.32623 | 24.96290 | 173 ft | 26 kts | 330° |
| 2026-05-07 19:43 | 60.32783 | 24.96105 | 173 ft | 27 kts | 330° |
| 2026-05-07 19:43 | 60.32945 | 24.95918 | 176 ft | 27 kts | 330° |
| 2026-05-07 19:43 | 60.33098 | 24.95725 | 180 ft | 26 kts | 320° |
| 2026-05-07 19:43 | 60.33192 | 24.95540 | 182 ft | 15 kts | 310° |
| 2026-05-07 19:44 | 60.33181 | 24.95334 | 180 ft | 18 kts | 233° |
| 2026-05-07 19:44 | 60.33109 | 24.95099 | 178 ft | 21 kts | 260° |
| 2026-05-07 19:44 | 60.33113 | 24.94802 | 180 ft | 21 kts | 273° |
| 2026-05-07 19:44 | 60.33120 | 24.94518 | 187 ft | 19 kts | 273° |
| 2026-05-07 19:45 | 60.33081 | 24.94318 | 192 ft | 14 kts | 229° |
| 2026-05-07 19:45 | 60.32966 | 24.94064 | 202 ft | 48 kts | 227° |
| 2026-05-07 19:45 | 60.32572 | 24.93199 | 177 ft | 116 kts | 227° |
| 2026-05-07 19:45 | 60.31896 | 24.91716 | 230 ft | 161 kts | 227° |
| 2026-05-07 19:46 | 60.31153 | 24.90071 | 963 ft | 157 kts | 230° |
| 2026-05-07 19:46 | 60.30452 | 24.88339 | 1528 ft | 168 kts | 245° |
| 2026-05-07 19:46 | 60.30156 | 24.85969 | 1870 ft | 185 kts | 275° |
| 2026-05-07 19:46 | 60.30488 | 24.83357 | 2199 ft | 205 kts | 297° |
| 2026-05-07 19:47 | 60.31109 | 24.80584 | 2649 ft | 229 kts | 297° |
| 2026-05-07 19:47 | 60.31722 | 24.77460 | 3260 ft | 249 kts | 284° |
| 2026-05-07 19:47 | 60.31675 | 24.73905 | 4136 ft | 260 kts | 263° |
| 2026-05-07 19:47 | 60.31462 | 24.70275 | 5133 ft | 261 kts | 268° |
| 2026-05-07 19:48 | 60.31382 | 24.66595 | 6112 ft | 264 kts | 270° |
| 2026-05-07 19:48 | 60.31344 | 24.62879 | 7050 ft | 266 kts | 270° |
| 2026-05-07 19:48 | 60.31308 | 24.59132 | 8011 ft | 267 kts | 270° |
| 2026-05-07 19:48 | 60.31258 | 24.55375 | 8989 ft | 268 kts | 269° |
| 2026-05-07 19:49 | 60.31191 | 24.51602 | 9954 ft | 270 kts | 269° |
| 2026-05-07 19:49 | 60.31111 | 24.47731 | 10504 ft | 286 kts | 269° |
| 2026-05-07 19:49 | 60.31014 | 24.43571 | 10875 ft | 306 kts | 268° |
| 2026-05-07 19:49 | 60.30903 | 24.39248 | 11618 ft | 310 kts | 268° |
| 2026-05-07 19:50 | 60.30787 | 24.34947 | 12493 ft | 311 kts | 268° |
| 2026-05-07 19:50 | 60.30667 | 24.30589 | 13410 ft | 311 kts | 268° |
| 2026-05-07 19:50 | 60.30547 | 24.26228 | 14270 ft | 311 kts | 268° |
| 2026-05-07 19:50 | 60.30427 | 24.21862 | 15041 ft | 312 kts | 268° |
| 2026-05-07 19:51 | 60.30308 | 24.17486 | 15799 ft | 313 kts | 268° |
| 2026-05-07 19:51 | 60.30184 | 24.13094 | 16541 ft | 315 kts | 268° |
| 2026-05-07 19:51 | 60.30055 | 24.08676 | 17289 ft | 316 kts | 268° |
| 2026-05-07 19:51 | 60.29925 | 24.04236 | 18027 ft | 318 kts | 268° |
| 2026-05-07 19:52 | 60.29795 | 23.99776 | 18711 ft | 320 kts | 268° |
| 2026-05-07 19:52 | 60.29458 | 23.95328 | 19329 ft | 323 kts | 260° |
| 2026-05-07 19:52 | 60.28980 | 23.90893 | 19956 ft | 325 kts | 260° |
| 2026-05-07 19:52 | 60.28494 | 23.86431 | 20579 ft | 327 kts | 260° |
| 2026-05-07 19:53 | 60.28005 | 23.81944 | 21196 ft | 329 kts | 260° |
| 2026-05-07 19:53 | 60.27512 | 23.77428 | 21808 ft | 331 kts | 259° |
| 2026-05-07 19:53 | 60.27015 | 23.72885 | 22427 ft | 333 kts | 259° |
| 2026-05-07 19:53 | 60.26514 | 23.68311 | 23030 ft | 335 kts | 259° |
| 2026-05-07 19:54 | 60.26017 | 23.63769 | 23603 ft | 338 kts | 259° |
| 2026-05-07 19:54 | 60.25510 | 23.59139 | 24076 ft | 340 kts | 259° |
| 2026-05-07 19:54 | 60.24996 | 23.54475 | 24522 ft | 343 kts | 259° |
| 2026-05-07 19:54 | 60.24472 | 23.49769 | 24953 ft | 345 kts | 259° |
| 2026-05-07 19:55 | 60.23942 | 23.45030 | 25384 ft | 348 kts | 259° |
| 2026-05-07 19:55 | 60.23408 | 23.40264 | 25799 ft | 351 kts | 259° |
| 2026-05-07 19:55 | 60.22868 | 23.35465 | 26197 ft | 353 kts | 259° |
| 2026-05-07 19:55 | 60.22325 | 23.30627 | 26591 ft | 355 kts | 259° |
| 2026-05-07 19:56 | 60.21776 | 23.25765 | 26986 ft | 358 kts | 259° |
| 2026-05-07 19:56 | 60.21220 | 23.20865 | 27375 ft | 360 kts | 259° |
| 2026-05-07 19:56 | 60.20661 | 23.15945 | 27755 ft | 363 kts | 259° |
| 2026-05-07 19:56 | 60.20094 | 23.10980 | 28136 ft | 365 kts | 259° |
| 2026-05-07 19:57 | 60.19519 | 23.05989 | 28502 ft | 367 kts | 259° |
| 2026-05-07 19:57 | 60.18938 | 23.00976 | 28864 ft | 370 kts | 259° |
| 2026-05-07 19:57 | 60.18353 | 22.95929 | 29214 ft | 372 kts | 259° |
| 2026-05-07 19:57 | 60.17764 | 22.90846 | 29567 ft | 374 kts | 259° |
| 2026-05-07 19:58 | 60.17174 | 22.85742 | 29894 ft | 377 kts | 259° |
| 2026-05-07 19:58 | 60.16586 | 22.80672 | 30211 ft | 379 kts | 259° |
| 2026-05-07 19:58 | 60.15983 | 22.75509 | 30478 ft | 381 kts | 259° |
| 2026-05-07 19:58 | 60.15371 | 22.70316 | 30717 ft | 384 kts | 258° |
| 2026-05-07 19:59 | 60.14751 | 22.65095 | 30948 ft | 386 kts | 258° |
| 2026-05-07 19:59 | 60.14125 | 22.59836 | 31163 ft | 388 kts | 258° |
| 2026-05-07 19:59 | 60.13497 | 22.54546 | 31387 ft | 391 kts | 258° |
| 2026-05-07 19:59 | 60.12863 | 22.49227 | 31601 ft | 393 kts | 258° |
| 2026-05-07 20:00 | 60.12222 | 22.43896 | 31892 ft | 393 kts | 258° |
| 2026-05-07 20:00 | 60.11579 | 22.38554 | 32121 ft | 394 kts | 258° |
| 2026-05-07 20:00 | 60.10941 | 22.33273 | 32172 ft | 383 kts | 258° |
| 2026-05-07 20:00 | 60.10317 | 22.28148 | 32173 ft | 375 kts | 258° |
| 2026-05-07 20:01 | 60.09081 | 22.18064 | 32171 ft | 371 kts | 258° |
| 2026-05-07 20:01 | 60.07847 | 22.08030 | 32172 ft | 371 kts | 258° |
| 2026-05-07 20:02 | 60.06605 | 21.98015 | 32177 ft | 371 kts | 258° |
| 2026-05-07 20:02 | 60.05359 | 21.87992 | 32175 ft | 371 kts | 258° |
| 2026-05-07 20:03 | 60.04115 | 21.77993 | 32177 ft | 370 kts | 258° |
| 2026-05-07 20:03 | 60.02866 | 21.68078 | 32182 ft | 370 kts | 258° |
| 2026-05-07 20:04 | 60.01595 | 21.58088 | 32181 ft | 370 kts | 258° |
| 2026-05-07 20:04 | 60.00316 | 21.48124 | 32179 ft | 370 kts | 258° |
| 2026-05-07 20:05 | 59.99030 | 21.38152 | 32178 ft | 370 kts | 258° |
| 2026-05-07 20:05 | 59.97684 | 21.28215 | 32181 ft | 371 kts | 257° |
| 2026-05-07 20:06 | 59.96286 | 21.18326 | 32179 ft | 371 kts | 257° |
| 2026-05-07 20:06 | 59.94884 | 21.08418 | 32177 ft | 371 kts | 257° |
| 2026-05-07 20:07 | 59.93492 | 20.98521 | 32184 ft | 371 kts | 257° |
| 2026-05-07 20:07 | 59.92096 | 20.88626 | 32146 ft | 371 kts | 257° |
| 2026-05-07 20:08 | 59.91392 | 20.83690 | 31882 ft | 369 kts | 257° |
| 2026-05-07 20:08 | 59.90691 | 20.78797 | 31625 ft | 366 kts | 257° |
| 2026-05-07 20:08 | 59.90001 | 20.73996 | 31371 ft | 364 kts | 257° |
| 2026-05-07 20:08 | 59.89307 | 20.69170 | 31079 ft | 359 kts | 257° |
| 2026-05-07 20:09 | 59.88624 | 20.64432 | 30651 ft | 354 kts | 257° |
| 2026-05-07 20:09 | 59.87948 | 20.59756 | 30176 ft | 350 kts | 258° |
| 2026-05-07 20:09 | 59.87577 | 20.55023 | 29148 ft | 344 kts | 272° |
| 2026-05-07 20:10 | 59.87732 | 20.45605 | 27178 ft | 337 kts | 273° |
| 2026-05-07 20:10 | 59.87811 | 20.40952 | 26279 ft | 338 kts | 273° |
| 2026-05-07 20:10 | 59.87887 | 20.36320 | 25789 ft | 330 kts | 273° |
| 2026-05-07 20:10 | 59.87957 | 20.31818 | 25407 ft | 321 kts | 272° |
| 2026-05-07 20:11 | 59.88024 | 20.27433 | 25032 ft | 315 kts | 273° |
| 2026-05-07 20:11 | 59.88092 | 20.23106 | 24658 ft | 310 kts | 273° |
| 2026-05-07 20:11 | 59.88160 | 20.18843 | 24290 ft | 306 kts | 273° |
| 2026-05-07 20:11 | 59.88223 | 20.14638 | 23907 ft | 302 kts | 273° |
| 2026-05-07 20:12 | 59.88282 | 20.10541 | 23507 ft | 298 kts | 273° |
| 2026-05-07 20:12 | 59.88340 | 20.06439 | 23122 ft | 294 kts | 272° |
| 2026-05-07 20:12 | 59.88393 | 20.02386 | 22745 ft | 292 kts | 272° |
| 2026-05-07 20:12 | 59.88446 | 19.98342 | 22386 ft | 291 kts | 273° |
| 2026-05-07 20:13 | 59.88499 | 19.94320 | 22016 ft | 290 kts | 273° |
| 2026-05-07 20:13 | 59.88553 | 19.90315 | 21651 ft | 289 kts | 273° |
| 2026-05-07 20:13 | 59.88605 | 19.86321 | 21283 ft | 288 kts | 273° |
| 2026-05-07 20:13 | 59.88654 | 19.82348 | 20900 ft | 287 kts | 272° |
| 2026-05-07 20:14 | 59.88700 | 19.78383 | 20547 ft | 286 kts | 272° |
| 2026-05-07 20:14 | 59.88745 | 19.74432 | 20184 ft | 285 kts | 273° |
| 2026-05-07 20:14 | 59.88790 | 19.70497 | 19821 ft | 284 kts | 272° |
| 2026-05-07 20:14 | 59.88834 | 19.66577 | 19457 ft | 283 kts | 272° |
| 2026-05-07 20:15 | 59.88877 | 19.62668 | 19099 ft | 282 kts | 273° |
| 2026-05-07 20:15 | 59.88920 | 19.58770 | 18739 ft | 281 kts | 273° |
| 2026-05-07 20:15 | 59.88962 | 19.54883 | 18366 ft | 280 kts | 273° |
| 2026-05-07 20:15 | 59.89002 | 19.51062 | 17995 ft | 279 kts | 272° |
| 2026-05-07 20:16 | 59.89041 | 19.47200 | 17634 ft | 279 kts | 272° |
| 2026-05-07 20:16 | 59.89077 | 19.43343 | 17287 ft | 278 kts | 272° |
| 2026-05-07 20:16 | 59.89108 | 19.39493 | 16941 ft | 278 kts | 272° |
| 2026-05-07 20:16 | 59.89136 | 19.35645 | 16597 ft | 278 kts | 272° |
| 2026-05-07 20:17 | 59.89164 | 19.31809 | 16251 ft | 277 kts | 272° |
| 2026-05-07 20:17 | 59.89192 | 19.27972 | 15912 ft | 277 kts | 272° |
| 2026-05-07 20:17 | 59.89223 | 19.24140 | 15566 ft | 277 kts | 272° |
| 2026-05-07 20:17 | 59.89258 | 19.20306 | 15217 ft | 276 kts | 273° |
| 2026-05-07 20:18 | 59.89291 | 19.16481 | 14875 ft | 276 kts | 272° |
| 2026-05-07 20:18 | 59.89320 | 19.12652 | 14532 ft | 276 kts | 272° |
| 2026-05-07 20:18 | 59.89345 | 19.08831 | 14185 ft | 276 kts | 272° |
| 2026-05-07 20:18 | 59.89367 | 19.05014 | 13817 ft | 276 kts | 272° |
| 2026-05-07 20:19 | 59.89388 | 19.01197 | 13455 ft | 275 kts | 272° |
| 2026-05-07 20:19 | 59.89411 | 18.97399 | 13098 ft | 274 kts | 272° |
| 2026-05-07 20:19 | 59.89434 | 18.93610 | 12743 ft | 273 kts | 272° |
| 2026-05-07 20:19 | 59.89457 | 18.89839 | 12390 ft | 272 kts | 272° |
| 2026-05-07 20:20 | 59.89478 | 18.86083 | 12035 ft | 271 kts | 272° |
| 2026-05-07 20:20 | 59.89497 | 18.82344 | 11676 ft | 269 kts | 272° |
| 2026-05-07 20:20 | 59.89515 | 18.78626 | 11325 ft | 268 kts | 272° |
| 2026-05-07 20:20 | 59.89529 | 18.74919 | 10964 ft | 267 kts | 272° |
| 2026-05-07 20:21 | 59.89544 | 18.71231 | 10600 ft | 266 kts | 272° |
| 2026-05-07 20:21 | 59.89556 | 18.67552 | 10339 ft | 265 kts | 272° |
| 2026-05-07 20:21 | 59.89568 | 18.63857 | 10260 ft | 268 kts | 272° |
| 2026-05-07 20:21 | 59.89577 | 18.60132 | 10099 ft | 270 kts | 272° |
| 2026-05-07 20:22 | 59.89586 | 18.56392 | 9534 ft | 274 kts | 272° |
| 2026-05-07 20:22 | 59.89595 | 18.53505 | 8838 ft | 282 kts | 272° |
| 2026-05-07 20:22 | 59.89619 | 18.49673 | 8640 ft | 272 kts | 272° |
| 2026-05-07 20:23 | 59.89626 | 18.45929 | 8240 ft | 270 kts | 271° |
| 2026-05-07 20:23 | 59.89627 | 18.42188 | 7783 ft | 270 kts | 271° |
| 2026-05-07 20:23 | 59.89627 | 18.39665 | 7486 ft | 270 kts | 271° |
| 2026-05-07 20:23 | 59.89509 | 18.34727 | 6904 ft | 270 kts | 260° |
| 2026-05-07 20:24 | 59.89166 | 18.32356 | 6554 ft | 269 kts | 249° |
| 2026-05-07 20:24 | 59.88289 | 18.29069 | 5864 ft | 270 kts | 240° |
| 2026-05-07 20:24 | 59.87335 | 18.25856 | 5205 ft | 269 kts | 240° |
| 2026-05-07 20:24 | 59.86391 | 18.22667 | 4534 ft | 268 kts | 240° |
| 2026-05-07 20:25 | 59.85449 | 18.19475 | 3967 ft | 263 kts | 239° |
| 2026-05-07 20:25 | 59.84553 | 18.16434 | 3758 ft | 245 kts | 239° |
| 2026-05-07 20:25 | 59.83719 | 18.13606 | 3647 ft | 230 kts | 239° |
| 2026-05-07 20:25 | 59.82927 | 18.10929 | 3541 ft | 220 kts | 239° |
| 2026-05-07 20:26 | 59.82159 | 18.08332 | 3445 ft | 217 kts | 238° |
| 2026-05-07 20:26 | 59.81396 | 18.05756 | 3344 ft | 216 kts | 238° |
| 2026-05-07 20:26 | 59.80576 | 18.03262 | 3247 ft | 214 kts | 227° |
| 2026-05-07 20:26 | 59.79879 | 18.02018 | 3150 ft | 209 kts | 213° |
| 2026-05-07 20:27 | 59.78573 | 18.00882 | 2907 ft | 204 kts | 191° |
| 2026-05-07 20:27 | 59.77186 | 18.00370 | 2672 ft | 201 kts | 189° |
| 2026-05-07 20:27 | 59.75831 | 17.99877 | 2402 ft | 195 kts | 190° |
| 2026-05-07 20:27 | 59.74517 | 17.99397 | 2120 ft | 189 kts | 190° |
| 2026-05-07 20:28 | 59.73250 | 17.98934 | 1860 ft | 179 kts | 190° |
| 2026-05-07 20:28 | 59.72081 | 17.98508 | 1638 ft | 160 kts | 189° |
| 2026-05-07 20:28 | 59.71049 | 17.98131 | 1416 ft | 143 kts | 189° |
| 2026-05-07 20:28 | 59.70106 | 17.97789 | 1208 ft | 135 kts | 189° |
| 2026-05-07 20:29 | 59.69198 | 17.97457 | 1025 ft | 132 kts | 189° |
| 2026-05-07 20:29 | 59.68298 | 17.97129 | 831 ft | 131 kts | 189° |
| 2026-05-07 20:29 | 59.67406 | 17.96803 | 654 ft | 132 kts | 188° |
| 2026-05-07 20:29 | 59.66499 | 17.96475 | 485 ft | 133 kts | 188° |
| 2026-05-07 20:30 | 59.65588 | 17.96141 | 285 ft | 133 kts | 188° |
| 2026-05-07 20:30 | 59.64680 | 17.95800 | 127 ft | 133 kts | 189° |
| 2026-05-07 20:30 | 59.63897 | 17.95534 | 115 ft | 90 kts | 190° |
| 2026-05-07 20:30 | 59.63486 | 17.95374 | 120 ft | 38 kts | 200° |
| 2026-05-07 20:31 | 59.63281 | 17.95102 | 119 ft | 26 kts | 220° |
| 2026-05-07 20:31 | 59.63248 | 17.94959 | 122 ft | 10 kts | 286° |
| 2026-05-07 20:31 | 59.63301 | 17.94908 | 119 ft | 9 kts | 5° |
| 2026-05-07 20:31 | 59.63370 | 17.94932 | 121 ft | 13 kts | 11° |
| 2026-05-07 20:32 | 59.63503 | 17.94980 | 118 ft | 23 kts | 10° |
| 2026-05-07 20:32 | 59.63676 | 17.95043 | 112 ft | 27 kts | 10° |
| 2026-05-07 20:32 | 59.63873 | 17.95115 | 110 ft | 30 kts | 10° |
| 2026-05-07 20:32 | 59.64086 | 17.95193 | 108 ft | 32 kts | 10° |
| 2026-05-07 20:33 | 59.64265 | 17.95229 | 106 ft | 20 kts | 349° |
| 2026-05-07 20:33 | 59.64381 | 17.95063 | 104 ft | 23 kts | 302° |
| 2026-05-07 20:33 | 59.64393 | 17.94750 | 102 ft | 24 kts | 248° |
| 2026-05-07 20:33 | 59.64300 | 17.94451 | 103 ft | 27 kts | 237° |
| 2026-05-07 20:34 | 59.64199 | 17.94131 | 105 ft | 28 kts | 237° |
| 2026-05-07 20:34 | 59.64098 | 17.93813 | 111 ft | 27 kts | 239° |
| 2026-05-07 20:34 | 59.63998 | 17.93494 | 112 ft | 28 kts | 248° |
| 2026-05-07 20:34 | 59.64034 | 17.93121 | 111 ft | 30 kts | 297° |
| 2026-05-07 20:35 | 59.64122 | 17.92787 | 110 ft | 25 kts | 297° |
| 2026-05-07 20:35 | 59.64179 | 17.92569 | 114 ft | 13 kts | 297° |
| 2026-05-07 20:35 | 59.64222 | 17.92473 | 115 ft | 8 kts | 344° |
| 2026-05-07 20:35 | 59.64267 | 17.92517 | 113 ft | 8 kts | 62° |
| 2026-05-07 20:36 | 59.64270 | 17.92625 | 113 ft | 8 kts | 60° |
| 2026-05-07 20:36 | 59.64312 | 17.92697 | 112 ft | 8 kts | 40° |
| 2026-05-07 20:36 | 59.64349 | 17.92761 | 112 ft | 7 kts | 41° |
| 2026-05-07 20:36 | 59.64369 | 17.92796 | 111 ft | 2 kts | 41° |
| 2026-05-07 20:37 | 59.64374 | 17.92804 | 112 ft | 0 kts | 41° |